createdAt,value
2019-01-05T00:00:20.080Z,14.10
2019-01-05T00:03:16.716Z,15.77
2019-01-05T00:06:03.065Z,19.40
2019-01-05T00:08:49.525Z,19.97
2019-01-05T00:11:31.232Z,18.73
2019-01-05T00:14:34.240Z,17.40
2019-01-05T00:17:20.243Z,16.83
2019-01-05T00:20:15.489Z,17.50
2019-01-05T00:23:05.956Z,16.43
2019-01-05T00:26:03.905Z,16.20
2019-01-05T00:29:00.805Z,15.93
2019-01-05T00:31:51.128Z,15.03
2019-01-05T00:34:48.726Z,13.83
2019-01-05T00:37:26.412Z,16.57
2019-01-05T00:40:25.456Z,12.43
2019-01-05T00:43:12.002Z,14.03
2019-01-05T00:45:58.457Z,13.87
2019-01-05T00:48:55.821Z,12.87
2019-01-05T00:51:47.773Z,12.23
2019-01-05T00:54:33.194Z,11.00
2019-01-05T00:57:29.803Z,13.03
2019-01-05T01:00:21.407Z,11.13
2019-01-05T01:03:07.505Z,10.60
2019-01-05T01:05:51.897Z,10.23
2019-01-05T01:08:38.252Z,10.60
2019-01-05T01:11:44.195Z,9.47
2019-01-05T01:14:31.889Z,10.50
2019-01-05T01:17:13.901Z,9.07
2019-01-05T01:20:10.502Z,9.50
2019-01-05T01:22:51.716Z,8.93
2019-01-05T01:25:38.364Z,10.03
2019-01-05T01:28:24.785Z,8.30
2019-01-05T01:31:18.532Z,10.97
2019-01-05T01:34:12.497Z,9.07
2019-01-05T01:36:48.660Z,8.77
2019-01-05T01:39:42.941Z,10.70
2019-01-05T01:42:44.107Z,10.90
2019-01-05T01:45:30.796Z,9.73
2019-01-05T01:48:34.480Z,12.13
2019-01-05T01:51:33.533Z,10.80
2019-01-05T01:54:24.272Z,10.60
2019-01-05T01:57:10.509Z,12.73
2019-01-05T02:00:14.740Z,11.20
2019-01-05T02:03:05.678Z,12.70
2019-01-05T02:05:46.620Z,13.60
2019-01-05T02:08:33.620Z,12.00
2019-01-05T02:11:28.754Z,13.30
2019-01-05T02:14:16.459Z,14.50
2019-01-05T02:17:10.786Z,15.83
2019-01-05T02:20:22.405Z,16.40
2019-01-05T02:23:34.749Z,13.63
2019-01-05T02:26:48.914Z,16.30
2019-01-05T02:30:01.647Z,16.00
2019-01-05T02:32:54.741Z,15.60
2019-01-05T02:36:22.478Z,11.50
2019-01-05T02:39:30.754Z,10.90
2019-01-05T02:42:52.175Z,9.67
2019-01-05T02:46:03.245Z,11.70
2019-01-05T02:49:11.956Z,10.87
2019-01-05T02:52:33.228Z,13.00
2019-01-05T02:55:43.551Z,10.20
2019-01-05T02:58:47.118Z,11.20
2019-01-05T03:02:11.891Z,10.50
2019-01-05T03:05:29.593Z,11.60
2019-01-05T03:08:38.062Z,11.33
2019-01-05T03:11:43.215Z,11.53
2019-01-05T03:14:51.309Z,10.47
2019-01-05T03:18:12.660Z,10.17
2019-01-05T03:21:16.685Z,8.67
2019-01-05T03:24:20.953Z,10.47
2019-01-05T03:27:15.717Z,9.40
2019-01-05T03:30:20.026Z,6.90
2019-01-05T03:33:25.874Z,8.53
2019-01-05T03:36:51.425Z,7.93
2019-01-05T03:39:58.227Z,8.23
2019-01-05T03:43:06.779Z,8.57
2019-01-05T03:46:23.606Z,6.80
2019-01-05T03:49:33.142Z,6.20
2019-01-05T03:52:42.998Z,7.60
2019-01-05T03:55:34.632Z,6.27
2019-01-05T03:58:36.553Z,6.70
2019-01-05T04:01:47.174Z,5.53
2019-01-05T04:04:52.741Z,5.03
2019-01-05T04:07:56.814Z,6.20
2019-01-05T04:11:10.080Z,5.47
2019-01-05T04:14:20.291Z,5.45
2019-01-05T04:17:57.289Z,4.70
2019-01-05T04:21:11.802Z,5.70
2019-01-05T04:24:22.966Z,4.53
2019-01-05T04:27:30.035Z,5.70
2019-01-05T04:30:37.139Z,5.40
2019-01-05T04:33:49.097Z,5.13
2019-01-05T04:36:47.030Z,5.50
2019-01-05T04:40:00.841Z,5.00
2019-01-05T04:43:15.923Z,5.50
2019-01-05T04:46:27.262Z,5.27
2019-01-05T04:49:19.582Z,4.83
2019-01-05T04:52:23.841Z,6.30
2019-01-05T04:55:33.339Z,5.27
2019-01-05T04:58:45.918Z,6.30
2019-01-05T05:01:59.768Z,5.43
2019-01-05T05:05:17.021Z,6.87
2019-01-05T05:08:30.960Z,5.83
2019-01-05T05:11:40.593Z,6.40
2019-01-05T05:14:30.578Z,5.70
2019-01-05T05:17:54.049Z,5.57
2019-01-05T05:21:17.408Z,6.50
2019-01-05T05:24:22.441Z,6.77
2019-01-05T05:27:27.760Z,6.20
2019-01-05T05:30:32.994Z,6.77
2019-01-05T05:33:56.170Z,6.73
2019-01-05T05:37:16.496Z,6.83
2019-01-05T05:40:23.346Z,7.10
2019-01-05T05:43:28.732Z,7.60
2019-01-05T05:46:31.999Z,7.27
2019-01-05T05:49:53.022Z,7.67
2019-01-05T05:53:02.238Z,7.23
2019-01-05T05:56:25.864Z,9.57
2019-01-05T05:59:35.465Z,5.97
2019-01-05T06:02:47.714Z,7.40
2019-01-05T06:05:46.888Z,8.03
2019-01-05T06:08:45.447Z,7.73
2019-01-05T06:12:00.749Z,8.73
2019-01-05T06:15:16.196Z,9.13
2019-01-05T06:18:20.186Z,7.67
2019-01-05T06:21:28.267Z,7.00
2019-01-05T06:24:41.405Z,6.40
2019-01-05T06:27:50.792Z,6.23
2019-01-05T06:30:53.608Z,6.27
2019-01-05T06:34:12.178Z,6.30
2019-01-05T06:37:20.787Z,7.00
2019-01-05T06:40:42.822Z,6.93
2019-01-05T06:43:42.803Z,7.30
2019-01-05T06:46:49.124Z,6.60
2019-01-05T06:49:36.520Z,7.33
2019-01-05T06:52:58.025Z,7.27
2019-01-05T06:55:56.257Z,6.63
2019-01-05T06:59:23.772Z,7.10
2019-01-05T07:02:34.682Z,6.37
2019-01-05T07:05:39.882Z,7.60
2019-01-05T07:09:16.787Z,6.73
2019-01-05T07:13:06.856Z,6.43
2019-01-05T07:16:35.932Z,6.13
2019-01-05T07:20:29.346Z,6.30
2019-01-05T07:24:10.710Z,6.80
2019-01-05T07:27:31.028Z,4.30
2019-01-05T07:30:55.974Z,6.50
2019-01-05T07:34:00.120Z,6.37
2019-01-05T07:37:05.637Z,8.90
2019-01-05T07:40:20.808Z,6.10
2019-01-05T07:43:33.669Z,7.70
2019-01-05T07:46:37.904Z,6.90
2019-01-05T07:49:59.176Z,5.90
2019-01-05T07:53:16.063Z,6.97
2019-01-05T07:56:18.467Z,6.83
2019-01-05T07:59:21.743Z,8.23
2019-01-05T08:02:27.046Z,6.73
2019-01-05T08:05:38.585Z,5.83
2019-01-05T08:09:03.045Z,6.50
2019-01-05T08:12:09.048Z,5.20
2019-01-05T08:15:20.734Z,6.10
2019-01-05T08:18:32.161Z,4.90
2019-01-05T08:21:31.658Z,6.37
2019-01-05T08:24:47.012Z,5.40
2019-01-05T08:27:52.180Z,6.40
2019-01-05T08:30:47.922Z,4.57
2019-01-05T08:34:08.893Z,4.40
2019-01-05T08:37:06.172Z,4.30
2019-01-05T08:40:18.698Z,3.87
2019-01-05T08:43:24.019Z,3.80
2019-01-05T08:46:48.576Z,3.47
2019-01-05T08:50:02.530Z,4.13
2019-01-05T08:53:06.065Z,4.40
2019-01-05T08:56:17.040Z,3.70
2019-01-05T08:59:27.858Z,3.73
2019-01-05T09:02:43.138Z,2.93
2019-01-05T09:06:08.284Z,3.60
2019-01-05T09:09:33.424Z,4.90
2019-01-05T09:12:59.115Z,4.00
2019-01-05T09:16:07.022Z,4.37
2019-01-05T09:19:21.357Z,5.37
2019-01-05T09:22:24.452Z,4.17
2019-01-05T09:25:28.253Z,4.70
2019-01-05T09:28:50.517Z,4.67
2019-01-05T09:32:02.986Z,4.80
2019-01-05T09:35:13.122Z,5.23
2019-01-05T09:38:37.669Z,3.27
2019-01-05T09:41:55.125Z,4.63
2019-01-05T09:45:06.583Z,3.63
2019-01-05T09:48:02.765Z,4.17
2019-01-05T09:51:20.405Z,3.80
2019-01-05T09:54:33.202Z,4.17
2019-01-05T09:57:28.192Z,4.37
2019-01-05T10:00:44.202Z,3.73
2019-01-05T10:03:52.479Z,4.50
2019-01-05T10:06:57.112Z,4.23
2019-01-05T10:10:20.334Z,3.80
2019-01-05T10:13:26.133Z,4.83
2019-01-05T10:16:39.817Z,4.07
2019-01-05T10:20:07.472Z,4.27
2019-01-05T10:23:34.974Z,4.53
2019-01-05T10:26:38.829Z,4.00
2019-01-05T10:29:43.588Z,3.83
2019-01-05T10:32:43.379Z,4.83
2019-01-05T10:35:52.477Z,4.40
2019-01-05T10:38:57.430Z,4.27
2019-01-05T10:41:56.138Z,4.80
2019-01-05T10:45:00.503Z,4.97
2019-01-05T10:48:13.093Z,6.10
2019-01-05T10:51:35.062Z,5.67
2019-01-05T10:55:17.574Z,6.37
2019-01-05T10:58:28.425Z,6.20
2019-01-05T11:01:33.504Z,5.97
2019-01-05T11:04:42.457Z,5.60
2019-01-05T11:08:01.554Z,5.50
2019-01-05T11:10:56.890Z,5.53
2019-01-05T11:14:19.893Z,4.60
2019-01-05T11:17:26.175Z,5.00
2019-01-05T11:20:36.243Z,6.40
2019-01-05T11:23:31.764Z,6.87
2019-01-05T11:26:37.336Z,6.80
2019-01-05T11:30:11.007Z,7.10
2019-01-05T11:33:30.225Z,6.53
2019-01-05T11:36:26.744Z,6.67
2019-01-05T11:39:50.345Z,8.23
2019-01-05T11:42:47.075Z,5.37
2019-01-05T11:45:52.830Z,5.30
2019-01-05T11:49:10.284Z,6.00
2019-01-05T11:52:24.820Z,6.80
2019-01-05T11:55:32.828Z,6.73
2019-01-05T11:58:58.045Z,5.90
2019-01-05T12:02:20.089Z,7.00
2019-01-05T12:05:22.894Z,6.40
2019-01-05T12:08:31.422Z,6.53
2019-01-05T12:11:48.680Z,4.93
2019-01-05T12:15:02.103Z,6.00
2019-01-05T12:18:28.629Z,14.17
2019-01-05T12:21:36.822Z,5.20
2019-01-05T12:24:41.005Z,6.47
2019-01-05T12:27:56.389Z,5.60
2019-01-05T12:31:30.362Z,5.87
2019-01-05T12:34:34.206Z,6.77
2019-01-05T12:37:38.284Z,7.90
2019-01-05T12:40:47.209Z,6.77
2019-01-05T12:43:54.455Z,6.27
2019-01-05T12:47:01.580Z,7.30
2019-01-05T12:50:06.829Z,9.13
2019-01-05T12:53:04.638Z,8.90
2019-01-05T12:56:14.428Z,9.63
2019-01-05T12:59:22.733Z,10.10
2019-01-05T13:02:37.350Z,9.30
2019-01-05T13:05:51.282Z,8.70
2019-01-05T13:09:19.028Z,9.47
2019-01-05T13:12:30.610Z,9.73
2019-01-05T13:15:43.205Z,8.47
2019-01-05T13:18:55.736Z,8.10
2019-01-05T13:22:08.500Z,7.77
2019-01-05T13:25:12.453Z,8.00
2019-01-05T13:28:16.568Z,8.20
2019-01-05T13:31:20.368Z,7.93
2019-01-05T13:34:28.897Z,7.80
2019-01-05T13:37:42.394Z,10.97
2019-01-05T13:40:46.607Z,8.67
2019-01-05T13:43:58.349Z,8.60
2019-01-05T13:47:17.017Z,6.80
2019-01-05T13:50:34.644Z,9.57
2019-01-05T13:53:39.845Z,7.63
2019-01-05T13:56:29.021Z,8.53
2019-01-05T13:59:16.005Z,8.77
2019-01-05T14:02:03.140Z,8.03
2019-01-05T14:04:54.378Z,8.70
2019-01-05T14:08:00.276Z,8.93
2019-01-05T14:10:46.300Z,10.20
2019-01-05T14:13:32.429Z,10.07
2019-01-05T14:16:18.549Z,11.50
2019-01-05T14:19:04.938Z,7.37
2019-01-05T14:21:51.340Z,8.30
2019-01-05T14:24:37.768Z,9.23
2019-01-05T14:27:24.237Z,7.60
2019-01-05T14:30:24.119Z,7.77
2019-01-05T14:33:14.621Z,7.90
2019-01-05T14:36:08.397Z,8.87
2019-01-05T14:39:02.000Z,8.00
2019-01-05T14:41:52.828Z,8.20
2019-01-05T14:44:41.109Z,8.47
2019-01-05T14:47:31.845Z,10.00
2019-01-05T14:50:25.454Z,6.43
2019-01-05T14:53:11.560Z,8.23
2019-01-05T14:55:57.986Z,9.73
2019-01-05T14:58:45.689Z,8.50
2019-01-05T15:01:51.646Z,9.40
2019-01-05T15:04:37.616Z,7.60
2019-01-05T15:07:31.358Z,8.63
2019-01-05T15:10:21.982Z,8.33
2019-01-05T15:13:15.652Z,7.70
2019-01-05T15:16:22.216Z,9.40
2019-01-05T15:19:22.177Z,8.53
2019-01-05T15:22:24.918Z,9.63
2019-01-05T15:25:18.553Z,8.43
2019-01-05T15:28:05.222Z,8.40
2019-01-05T15:31:08.704Z,7.57
2019-01-05T15:33:49.012Z,7.40
2019-01-05T15:36:40.090Z,7.90
2019-01-05T15:39:37.535Z,7.60
2019-01-05T15:42:41.570Z,9.53
2019-01-05T15:45:28.587Z,8.73
2019-01-05T15:48:15.219Z,7.40
2019-01-05T15:51:03.416Z,7.30
2019-01-05T15:54:06.581Z,7.73
2019-01-05T15:57:12.606Z,7.17
2019-01-05T16:00:01.487Z,7.73
2019-01-05T16:02:47.531Z,8.30
2019-01-05T16:05:38.533Z,7.80
2019-01-05T16:08:25.581Z,8.63
2019-01-05T16:11:12.948Z,9.83
2019-01-05T16:14:01.700Z,8.30
2019-01-05T16:17:04.894Z,12.07
2019-01-05T16:19:48.862Z,7.53
2019-01-05T16:22:34.934Z,9.13
2019-01-05T16:25:28.721Z,10.10
2019-01-05T16:28:15.080Z,10.43
2019-01-05T16:31:08.734Z,9.80
2019-01-05T16:33:56.501Z,11.57
2019-01-05T16:36:42.669Z,8.60
2019-01-05T16:39:29.092Z,8.87
2019-01-05T16:42:23.048Z,9.07
2019-01-05T16:45:23.002Z,8.60
2019-01-05T16:48:28.680Z,7.57
2019-01-05T16:51:19.641Z,8.80
2019-01-05T16:54:07.465Z,9.33
2019-01-05T16:56:58.038Z,11.70
2019-01-05T16:59:57.173Z,8.70
2019-01-05T17:02:50.994Z,8.97
2019-01-05T17:05:56.662Z,10.30
2019-01-05T17:08:39.384Z,8.97
2019-01-05T17:11:30.275Z,10.87
2019-01-05T17:14:16.147Z,11.10
2019-01-05T17:17:19.142Z,10.60
2019-01-05T17:20:02.235Z,10.83
2019-01-05T17:22:49.964Z,8.67
2019-01-05T17:25:52.700Z,8.77
2019-01-05T17:28:40.502Z,10.10
2019-01-05T17:31:40.289Z,8.30
2019-01-05T17:34:31.475Z,8.60
2019-01-05T17:37:13.613Z,9.13
2019-01-05T17:40:04.519Z,8.27
2019-01-05T17:43:01.288Z,9.50
2019-01-05T17:45:51.938Z,9.87
2019-01-05T17:48:38.750Z,11.60
2019-01-05T17:51:47.341Z,10.40
2019-01-05T17:54:42.832Z,11.40
2019-01-05T17:57:37.376Z,11.40
2019-01-05T18:00:23.867Z,9.97
2019-01-05T18:03:20.793Z,12.60
2019-01-05T18:06:17.486Z,10.73
2019-01-05T18:09:03.706Z,10.73
2019-01-05T18:11:50.338Z,11.10
2019-01-05T18:14:34.794Z,12.67
2019-01-05T18:17:21.031Z,11.63
2019-01-05T18:20:14.633Z,13.13
2019-01-05T18:23:14.658Z,11.30
2019-01-05T18:26:01.223Z,13.50
2019-01-05T18:28:55.382Z,9.83
2019-01-05T18:31:45.959Z,9.87
2019-01-05T18:34:32.233Z,11.80
2019-01-05T18:37:22.921Z,13.07
2019-01-05T18:40:16.833Z,10.43
2019-01-05T18:43:03.082Z,11.17
2019-01-05T18:45:53.632Z,10.57
2019-01-05T18:48:53.611Z,11.10
2019-01-05T18:51:56.313Z,10.10
2019-01-05T18:54:56.033Z,10.47
2019-01-05T18:57:42.258Z,12.83
2019-01-05T19:00:39.142Z,10.97
2019-01-05T19:03:35.827Z,10.30
2019-01-05T19:06:21.961Z,11.90
2019-01-05T19:09:15.984Z,11.33
2019-01-05T19:12:08.561Z,9.50
2019-01-05T19:15:03.692Z,8.83
2019-01-05T19:17:51.438Z,9.60
2019-01-05T19:20:54.293Z,10.73
2019-01-05T19:23:48.232Z,11.27
2019-01-05T19:26:35.617Z,9.93
2019-01-05T19:29:22.031Z,10.10
2019-01-05T19:32:09.773Z,9.73
2019-01-05T19:35:15.654Z,10.47
2019-01-05T19:37:56.740Z,9.30
2019-01-05T19:40:53.452Z,11.20
2019-01-05T19:43:46.962Z,8.70
2019-01-05T19:46:39.276Z,9.90
2019-01-05T19:49:25.640Z,9.70
2019-01-05T19:52:28.667Z,10.23
2019-01-05T19:55:14.994Z,9.57
2019-01-05T19:58:01.391Z,10.90
2019-01-05T20:00:55.161Z,7.93
2019-01-05T20:03:57.079Z,9.97
2019-01-05T20:06:44.857Z,10.27
2019-01-05T20:09:38.437Z,10.90
2019-01-05T20:12:32.297Z,9.70
2019-01-05T20:15:16.629Z,10.40
2019-01-05T20:18:03.141Z,9.80
2019-01-05T20:20:46.158Z,10.43
2019-01-05T20:23:35.118Z,9.47
2019-01-05T20:26:15.185Z,10.20
2019-01-05T20:29:05.692Z,10.17
2019-01-05T20:31:56.514Z,10.73
2019-01-05T20:34:40.045Z,10.93
2019-01-05T20:37:30.764Z,11.63
2019-01-05T20:40:14.281Z,10.67
2019-01-05T20:43:00.697Z,10.70
2019-01-05T20:45:46.894Z,10.27
2019-01-05T20:48:33.206Z,10.33
2019-01-05T20:51:32.833Z,10.53
2019-01-05T20:54:19.001Z,9.57
2019-01-05T20:57:05.861Z,11.30
2019-01-05T21:00:01.075Z,10.97
2019-01-05T21:03:07.110Z,10.43
2019-01-05T21:05:57.625Z,12.10
2019-01-05T21:08:53.010Z,10.80
2019-01-05T21:11:44.848Z,10.70
2019-01-05T21:14:31.288Z,11.60
2019-01-05T21:17:27.940Z,9.80
2019-01-05T21:20:21.449Z,10.40
2019-01-05T21:23:07.545Z,12.70
2019-01-05T21:26:04.433Z,11.27
2019-01-05T21:28:56.053Z,10.67
2019-01-05T21:31:42.968Z,11.10
2019-01-05T21:34:23.744Z,9.63
2019-01-05T21:37:29.641Z,10.60
2019-01-05T21:40:16.019Z,9.60
2019-01-05T21:43:09.900Z,11.80
2019-01-05T21:45:53.122Z,10.37
2019-01-05T21:48:39.555Z,10.57
2019-01-05T21:51:26.228Z,11.33
2019-01-05T21:54:13.937Z,9.47
2019-01-05T21:57:04.192Z,8.80
2019-01-05T21:59:57.945Z,10.07
2019-01-05T22:02:51.517Z,9.40
2019-01-05T22:05:37.859Z,11.20
2019-01-05T22:08:28.574Z,10.33
2019-01-05T22:11:31.485Z,10.17
2019-01-05T22:14:22.271Z,10.40
2019-01-05T22:17:08.781Z,9.50
2019-01-05T22:19:56.202Z,10.27
2019-01-05T22:22:37.671Z,11.47
2019-01-05T22:25:31.242Z,10.10
2019-01-05T22:28:21.718Z,9.20
2019-01-05T22:31:07.857Z,13.77
2019-01-05T22:33:54.350Z,10.50
2019-01-05T22:36:36.983Z,10.93
2019-01-05T22:39:43.320Z,12.03
2019-01-05T22:42:42.762Z,12.03
2019-01-05T22:45:32.982Z,11.07
2019-01-05T22:48:16.798Z,11.03
2019-01-05T22:51:11.657Z,11.97
2019-01-05T22:53:58.063Z,13.37
2019-01-05T22:56:44.476Z,11.53
2019-01-05T22:59:35.196Z,13.40
2019-01-05T23:02:21.090Z,11.90
2019-01-05T23:05:17.657Z,12.33
2019-01-05T23:08:04.089Z,10.57
2019-01-05T23:10:57.643Z,12.83
2019-01-05T23:13:54.329Z,12.40
2019-01-05T23:16:44.798Z,13.20
2019-01-05T23:19:38.250Z,9.80
2019-01-05T23:22:23.269Z,8.63
2019-01-05T23:25:14.116Z,9.10
2019-01-05T23:28:07.897Z,10.53
2019-01-05T23:31:01.762Z,8.70
2019-01-05T23:33:48.188Z,8.73
2019-01-05T23:36:51.031Z,9.73
2019-01-05T23:39:38.741Z,9.67
2019-01-05T23:42:24.890Z,9.00
2019-01-05T23:45:18.670Z,9.40
2019-01-05T23:48:05.389Z,9.07
2019-01-05T23:50:59.244Z,7.97
2019-01-05T23:53:47.227Z,8.77
2019-01-05T23:56:33.900Z,7.13
2019-01-05T23:59:19.994Z,8.20
